Terminal Aerodrome Forecast
Issued by NWS

Home | Current Version | Previous Version | Text Only | Print | Product List | Glossary On
Versions: 1 2 3 4 5 6 7 8 9 10 11 12 13
000
FTUS42 TJSJ 301700
TAFJSJ
TAF
TJSJ 301730Z 3018/3118 06011KT P6SM FEW030 SCT040 SCT080
     FM302200 08005KT P6SM FEW040
     FM310800 VRB02KT P6SM VCSH FEW025 SCT035
     FM311430 07012KT P6SM FEW028 SCT035=

USA.gov is the U.S. government's official web portal to all federal, state and local government web resources and services.